Time;durP1;ratioP1;P1;durP2;ratioP2;P2;SDS_P1;SDS_P2;PMS_P1;PMS_P2;Temp;Humidity;BMP_temperature;BMP_pressure;BME280_temperature;BME280_humidity;BME280_pressure;Samples;Min_cycle;Max_cycle;Signal;HPM_P1;HPM_P2
2021/09/15 00:02:34;;;;;;;22.97;14.33;;;;;;;9.94;78.19;99175.54;2320777;75;20959;-80
2021/09/15 00:05:34;;;;;;;20.77;14.87;;;;;;;9.90;78.17;99174.60;2325381;76;20979;-80
2021/09/15 00:08:35;;;;;;;21.37;14.53;;;;;;;9.88;78.16;99168.48;2320367;75;20967;-82
2021/09/15 00:11:36;;;;;;;19.30;14.17;;;;;;;9.89;78.70;99161.98;2281777;76;21031;-82
2021/09/15 00:14:36;;;;;;;23.50;15.30;;;;;;;9.85;78.13;99164.50;2322826;75;21283;-82
2021/09/15 00:17:36;;;;;;;25.07;17.07;;;;;;;9.81;78.23;99164.88;2326938;75;20979;-82
2021/09/15 00:20:37;;;;;;;26.03;17.57;;;;;;;9.83;78.31;99166.20;2326277;75;20959;-81
2021/09/15 00:23:37;;;;;;;21.30;15.43;;;;;;;9.77;78.22;99163.05;2331575;75;20943;-81
2021/09/15 00:26:38;;;;;;;17.33;14.40;;;;;;;9.73;78.36;99167.75;2328085;76;20990;-81
2021/09/15 00:29:40;;;;;;;20.27;15.10;;;;;;;9.70;78.44;99172.02;2324304;75;20932;-81
2021/09/15 00:32:41;;;;;;;22.63;15.03;;;;;;;9.65;78.48;99164.11;2321890;74;20968;-81
2021/09/15 00:35:41;;;;;;;18.93;13.70;;;;;;;9.62;78.63;99165.77;2328255;75;20943;-81
2021/09/15 00:38:42;;;;;;;25.30;14.40;;;;;;;9.60;78.69;99167.47;2327312;76;20971;-81
2021/09/15 00:41:42;;;;;;;20.13;14.47;;;;;;;9.56;78.69;99168.70;2320169;75;21288;-81
2021/09/15 00:44:43;;;;;;;19.47;14.57;;;;;;;9.53;78.87;99167.31;2323882;76;20975;-81
2021/09/15 00:47:43;;;;;;;20.00;14.63;;;;;;;9.53;78.93;99175.12;2320411;76;20999;-81
2021/09/15 00:50:44;;;;;;;22.10;14.60;;;;;;;9.58;79.37;99175.25;2322893;75;20983;-81
2021/09/15 00:53:44;;;;;;;17.63;12.77;;;;;;;9.56;78.85;99169.13;2330901;76;21354;-81
2021/09/15 00:56:45;;;;;;;19.00;15.17;;;;;;;9.50;78.73;99173.76;2323814;75;20990;-81
2021/09/15 00:59:45;;;;;;;27.67;13.50;;;;;;;9.45;78.73;99174.08;2321342;75;20964;-81
2021/09/15 01:02:46;;;;;;;21.90;13.77;;;;;;;9.41;78.88;99174.86;2329462;75;20955;-81
2021/09/15 01:05:46;;;;;;;22.63;14.23;;;;;;;9.36;79.03;99176.48;2326302;75;21000;-81
2021/09/15 01:08:46;;;;;;;20.80;13.73;;;;;;;9.34;79.25;99179.48;2325987;76;21359;-81
2021/09/15 01:11:47;;;;;;;24.23;15.50;;;;;;;9.33;79.37;99172.52;2319922;75;21006;-81
2021/09/15 01:14:47;;;;;;;21.53;15.10;;;;;;;9.35;79.96;99176.03;2322965;76;20966;-81
2021/09/15 01:17:48;;;;;;;16.57;14.13;;;;;;;9.39;79.73;99178.28;2321310;76;20952;-82
2021/09/15 01:20:48;;;;;;;18.10;14.27;;;;;;;9.38;79.32;99171.31;2327567;75;20955;-81
2021/09/15 01:23:49;;;;;;;38.20;16.43;;;;;;;9.31;79.10;99174.20;2328834;75;20952;-81
2021/09/15 01:26:51;;;;;;;24.97;14.73;;;;;;;9.27;79.59;99163.27;2324941;75;21019;-81
2021/09/15 01:29:51;;;;;;;26.93;16.63;;;;;;;9.22;79.56;99163.59;2313089;76;20947;-81
2021/09/15 01:32:52;;;;;;;24.47;14.17;;;;;;;9.22;79.92;99167.49;2324599;74;20973;-82
2021/09/15 01:35:52;;;;;;;17.27;14.10;;;;;;;9.21;79.66;99173.13;2369934;75;21352;-81
2021/09/15 01:38:53;;;;;;;15.77;14.03;;;;;;;9.19;80.04;99176.12;2285849;76;20958;-81
2021/09/15 01:41:53;;;;;;;44.23;15.37;;;;;;;9.20;80.01;99175.69;2324095;74;20952;-81
2021/09/15 01:44:53;;;;;;;78.57;19.93;;;;;;;9.18;79.70;99173.05;2315959;77;20951;-80
2021/09/15 01:47:54;;;;;;;25.40;14.20;;;;;;;9.17;79.82;99172.59;2318054;75;20967;-81
2021/09/15 01:50:54;;;;;;;17.73;13.53;;;;;;;9.17;79.95;99173.90;2292620;76;21034;-81
2021/09/15 01:53:55;;;;;;;17.83;13.33;;;;;;;9.15;79.71;99171.69;2374456;74;20968;-80
2021/09/15 01:56:55;;;;;;;18.13;14.23;;;;;;;9.13;79.63;99169.89;2301835;76;21002;-80
2021/09/15 01:59:57;;;;;;;21.70;12.83;;;;;;;9.10;79.68;99169.82;2363536;75;21342;-80
2021/09/15 02:02:57;;;;;;;17.37;13.73;;;;;;;9.06;79.59;99173.20;2370117;75;22051;-81
2021/09/15 02:05:58;;;;;;;20.73;14.10;;;;;;;9.04;79.70;99173.59;2314116;76;21302;-80
2021/09/15 02:08:58;;;;;;;19.03;13.40;;;;;;;9.02;79.69;99175.28;2341147;75;20999;-81
2021/09/15 02:11:59;;;;;;;20.07;13.03;;;;;;;8.97;79.60;99175.59;2371752;74;20963;-81
2021/09/15 02:14:59;;;;;;;18.97;12.97;;;;;;;8.98;79.80;99182.56;2360371;75;20954;-81
2021/09/15 02:18:00;;;;;;;14.80;12.83;;;;;;;8.97;79.81;99182.98;2368089;75;20976;-81
2021/09/15 02:21:00;;;;;;;16.60;13.17;;;;;;;8.93;79.88;99174.64;2370799;75;20940;-81
2021/09/15 02:24:01;;;;;;;114.97;20.97;;;;;;;8.92;79.87;99176.36;2326867;74;20998;-81
2021/09/15 02:27:01;;;;;;;35.03;15.20;;;;;;;8.87;79.90;99176.67;2379444;74;20948;-81
2021/09/15 02:30:02;;;;;;;20.53;14.27;;;;;;;8.89;80.01;99174.11;2322574;75;20967;-81
2021/09/15 02:33:03;;;;;;;17.67;13.43;;;;;;;8.90;80.25;99169.36;2317832;77;21288;-81
2021/09/15 02:36:03;;;;;;;20.70;14.33;;;;;;;8.93;80.24;99175.52;2283201;77;21330;-81
2021/09/15 02:39:04;;;;;;;28.40;15.50;;;;;;;8.92;79.93;99172.46;2295685;77;20935;-82
2021/09/15 02:42:05;;;;;;;22.23;13.23;;;;;;;8.91;80.05;99168.52;2295943;77;20908;-83
2021/09/15 02:45:05;;;;;;;19.07;13.47;;;;;;;8.88;79.96;99167.14;2372726;75;20930;-83
2021/09/15 02:48:06;;;;;;;105.20;21.63;;;;;;;8.85;80.00;99164.47;2378390;75;20913;-78
2021/09/15 02:51:07;;;;;;;25.90;13.90;;;;;;;8.84;80.32;99170.09;2359712;75;20950;-84
2021/09/15 02:54:07;;;;;;;16.37;13.03;;;;;;;8.85;80.15;99170.55;2321791;75;21000;-84
2021/09/15 02:57:08;;;;;;;137.47;23.63;;;;;;;8.87;80.03;99175.38;2282283;77;20982;-84
2021/09/15 03:00:08;;;;;;;18.37;13.20;;;;;;;8.82;80.10;99169.60;2376426;74;20999;-84
2021/09/15 03:03:09;;;;;;;22.63;14.03;;;;;;;8.81;80.10;99175.66;2369316;75;20917;-84
2021/09/15 03:06:09;;;;;;;22.97;14.27;;;;;;;8.79;80.06;99174.73;2282379;76;20983;-84
2021/09/15 03:09:10;;;;;;;19.13;12.67;;;;;;;8.75;80.01;99166.39;2368997;74;20955;-80
2021/09/15 03:12:10;;;;;;;21.73;13.17;;;;;;;8.70;79.98;99161.08;2328675;75;20975;-81
2021/09/15 03:15:11;;;;;;;16.83;13.27;;;;;;;8.69;80.29;99159.32;2318287;75;21390;-82
2021/09/15 03:18:11;;;;;;;22.03;13.10;;;;;;;8.71;80.31;99157.63;2316239;76;20964;-79
2021/09/15 03:21:12;;;;;;;16.90;12.80;;;;;;;8.71;80.32;99154.16;2319221;75;20935;-82
2021/09/15 03:24:13;;;;;;;25.57;12.37;;;;;;;8.69;80.15;99158.02;2320289;76;20960;-81
2021/09/15 03:27:13;;;;;;;25.57;13.47;;;;;;;8.66;80.09;99148.80;2277421;76;20982;-82
2021/09/15 03:30:14;;;;;;;21.73;13.50;;;;;;;8.67;80.27;99149.30;2379605;74;20940;-80
2021/09/15 03:33:14;;;;;;;14.70;12.57;;;;;;;8.68;80.20;99153.66;2342831;75;21323;-80
2021/09/15 03:36:15;;;;;;;116.30;22.57;;;;;;;8.68;80.19;99151.05;2371565;74;21315;-78
2021/09/15 03:39:15;;;;;;;17.30;13.03;;;;;;;8.73;80.37;99153.34;2376127;75;20936;-80
2021/09/15 03:42:16;;;;;;;22.13;14.47;;;;;;;8.75;80.13;99145.58;2284368;76;21007;-79
2021/09/15 03:45:16;;;;;;;19.97;13.23;;;;;;;8.72;80.11;99148.98;2321190;74;20955;-80
2021/09/15 03:48:17;;;;;;;19.67;14.53;;;;;;;8.67;79.69;99153.58;2314827;75;20962;-79
2021/09/15 03:51:17;;;;;;;14.93;12.80;;;;;;;8.61;79.94;99147.39;2320161;75;21129;-83
2021/09/15 03:54:18;;;;;;;20.17;14.03;;;;;;;8.58;79.99;99149.92;2325466;76;21359;-82
2021/09/15 03:57:18;;;;;;;17.93;13.50;;;;;;;8.55;80.14;99149.84;2317786;76;21018;-81
2021/09/15 04:00:19;;;;;;;20.87;12.40;;;;;;;8.53;80.05;99145.02;2279721;77;20956;-82
2021/09/15 04:03:19;;;;;;;26.23;15.13;;;;;;;8.54;80.10;99152.41;2304136;75;21003;-82
2021/09/15 04:06:20;;;;;;;28.83;15.13;;;;;;;8.55;80.53;99155.05;2279271;76;20977;-82
2021/09/15 04:09:20;;;;;;;23.27;13.90;;;;;;;8.57;80.56;99155.08;2326294;75;20999;-82
2021/09/15 04:12:21;;;;;;;20.13;13.60;;;;;;;8.56;80.24;99154.63;2367574;75;20962;-82
2021/09/15 04:15:21;;;;;;;33.27;16.87;;;;;;;8.50;80.11;99155.77;2289089;77;20962;-82
2021/09/15 04:18:22;;;;;;;18.67;13.57;;;;;;;8.48;80.72;99149.66;2379322;74;21272;-81
2021/09/15 04:21:22;;;;;;;19.20;13.37;;;;;;;8.50;80.19;99156.66;2338088;75;20955;-80
2021/09/15 04:31:09;;;;;;;22.80;13.40;;;;;;;8.48;80.16;99151.84;2368733;74;20931;-80
2021/09/15 04:34:03;;;;;;;25.53;13.73;;;;;;;8.50;80.02;99155.77;2373874;75;20998;-83
2021/09/15 04:37:03;;;;;;;21.43;12.50;;;;;;;8.52;80.29;99156.69;2360073;75;20939;-84
2021/09/15 04:40:04;;;;;;;16.03;12.77;;;;;;;8.53;80.28;99159.75;2281200;77;20986;-82
2021/09/15 04:43:04;;;;;;;18.67;11.77;;;;;;;8.57;80.21;99160.29;2316599;75;21298;-83
2021/09/15 04:46:05;;;;;;;76.27;21.10;;;;;;;8.57;80.16;99155.08;2325372;76;20963;-85
2021/09/15 04:49:05;;;;;;;20.80;16.63;;;;;;;8.59;81.01;99150.80;2323797;75;20959;-83
2021/09/15 04:52:06;;;;;;;28.83;17.53;;;;;;;8.73;81.19;99160.27;2330688;76;20971;-84
2021/09/15 04:55:06;;;;;;;175.63;31.87;;;;;;;8.84;81.80;99159.69;2319228;76;20987;-79
2021/09/15 04:58:07;;;;;;;34.27;18.67;;;;;;;9.01;82.43;99156.59;2280995;76;20974;-82
2021/09/15 05:01:07;;;;;;;294.97;47.17;;;;;;;9.21;82.77;99156.62;2317798;75;21339;-82
2021/09/15 05:04:08;;;;;;;37.63;19.13;;;;;;;9.39;83.26;99154.41;2323101;75;21007;-82
2021/09/15 05:07:09;;;;;;;71.20;25.70;;;;;;;9.61;82.81;99156.20;2277414;76;21030;-81
2021/09/15 05:10:10;;;;;;;46.43;24.37;;;;;;;9.81;83.09;99158.35;2307856;75;20995;-82
2021/09/15 05:13:10;;;;;;;32.30;21.70;;;;;;;10.02;83.76;99154.40;2308393;77;20959;-80
2021/09/15 05:16:11;;;;;;;41.23;28.30;;;;;;;10.29;83.29;99151.02;2317934;76;21308;-82
2021/09/15 05:19:12;;;;;;;44.40;34.23;;;;;;;10.46;83.79;99151.35;2299474;76;21335;-81
2021/09/15 05:22:12;;;;;;;38.40;30.93;;;;;;;10.71;85.16;99144.38;2316199;77;20936;-83
2021/09/15 05:25:13;;;;;;;160.30;41.93;;;;;;;10.99;85.13;99142.19;2280015;75;20991;-81
2021/09/15 05:28:13;;;;;;;51.57;34.43;;;;;;;11.37;86.51;99135.80;2304335;77;21036;-83
2021/09/15 05:31:14;;;;;;;46.80;35.30;;;;;;;11.67;85.68;99141.84;2320230;77;20963;-83
2021/09/15 05:34:14;;;;;;;39.97;32.30;;;;;;;11.90;85.13;99139.52;2311699;77;20948;-82
2021/09/15 05:37:15;;;;;;;44.53;34.80;;;;;;;12.13;84.89;99148.50;2291006;76;21013;-81
2021/09/15 05:40:17;;;;;;;49.07;35.07;;;;;;;12.37;84.88;99139.16;2335213;75;20891;-82
2021/09/15 05:43:18;;;;;;;44.23;35.10;;;;;;;12.58;85.13;99146.33;2370991;75;20982;-80
2021/09/15 05:46:18;;;;;;;46.58;32.50;;;;;;;12.82;84.48;99141.29;2372835;75;20939;-80
2021/09/15 05:49:19;;;;;;;110.17;36.98;;;;;;;13.02;84.16;99141.03;2315892;75;20974;-80
2021/09/15 05:52:19;;;;;;;37.60;30.72;;;;;;;13.22;83.95;99134.64;2317837;76;20986;-82
2021/09/15 05:55:20;;;;;;;44.75;31.80;;;;;;;13.41;83.67;99125.55;2297091;77;21007;-83
2021/09/15 05:58:21;;;;;;;37.33;32.55;;;;;;;13.57;83.48;99124.33;2367900;74;20939;-83
2021/09/15 06:01:21;;;;;;;42.62;31.90;;;;;;;13.71;83.21;99116.07;2368374;75;20937;-81
2021/09/15 06:04:22;;;;;;;33.55;29.30;;;;;;;13.86;82.87;99120.93;2312995;77;21383;-80
2021/09/15 06:07:23;;;;;;;35.78;29.37;;;;;;;14.07;82.94;99120.14;2338399;75;20952;-82
2021/09/15 06:10:23;;;;;;;38.05;27.80;;;;;;;14.28;82.65;99118.86;2318554;75;20967;-81
2021/09/15 06:13:24;;;;;;;33.53;27.95;;;;;;;14.43;82.23;99116.29;2316078;77;20951;-80
2021/09/15 06:16:24;;;;;;;32.23;27.02;;;;;;;14.64;82.00;99114.10;2324990;77;21055;-83
2021/09/15 06:19:25;;;;;;;33.38;26.65;;;;;;;14.86;81.61;99115.88;2317608;77;20956;-81
2021/09/15 06:22:25;;;;;;;30.02;25.72;;;;;;;15.09;81.20;99118.91;2311193;75;20968;-81
2021/09/15 06:28:29;;;;;;;32.95;23.15;;;;;;;15.51;79.76;99120.54;2274269;76;20939;-82
2021/09/15 06:31:30;;;;;;;29.72;24.92;;;;;;;15.69;79.78;99107.38;2298146;77;20964;-82
2021/09/15 06:34:30;;;;;;;31.48;25.05;;;;;;;15.88;78.89;99108.16;2275607;76;21283;-81
2021/09/15 06:37:31;;;;;;;26.65;23.83;;;;;;;16.08;78.57;99106.28;2310292;77;21352;-83
2021/09/15 06:40:32;;;;;;;29.25;22.98;;;;;;;16.31;77.90;99107.89;2299012;76;20946;-83
2021/09/15 06:43:32;;;;;;;161.15;30.68;;;;;;;16.43;77.20;99107.36;2318942;75;20959;-82
2021/09/15 06:46:33;;;;;;;30.00;24.02;;;;;;;16.59;76.75;99108.59;2307827;77;20936;-81
2021/09/15 06:49:33;;;;;;;25.15;21.65;;;;;;;16.72;76.12;99101.05;2311508;77;21304;-82
2021/09/15 06:52:34;;;;;;;25.50;22.45;;;;;;;16.83;75.94;99095.23;2317580;76;21004;-83
2021/09/15 06:55:34;;;;;;;28.38;20.45;;;;;;;16.97;75.49;99099.92;2280146;77;20979;-82
2021/09/15 06:58:35;;;;;;;24.10;20.35;;;;;;;17.16;74.98;99102.80;2313751;77;20967;-82
2021/09/15 07:01:35;;;;;;;24.50;21.10;;;;;;;17.32;73.93;99097.36;2313916;77;20930;-82
2021/09/15 07:04:36;;;;;;;24.95;21.37;;;;;;;17.41;73.29;99103.89;2294947;76;20936;-82
2021/09/15 07:07:36;;;;;;;25.17;20.62;;;;;;;17.55;72.50;99094.05;2309391;76;21342;-82
2021/09/15 07:10:39;;;;;;;24.18;18.98;;;;;;;17.69;72.73;99095.22;2311993;76;20959;-82
2021/09/15 07:13:39;;;;;;;27.75;19.77;;;;;;;17.91;72.46;99100.64;2316784;76;21007;-82
2021/09/15 07:16:40;;;;;;;21.25;18.48;;;;;;;18.11;71.60;99105.65;2314812;76;21347;-83
2021/09/15 07:19:40;;;;;;;22.58;18.55;;;;;;;18.24;71.16;99096.68;2312289;76;20990;-83
2021/09/15 07:22:41;;;;;;;18.77;16.80;;;;;;;18.37;70.82;99091.63;2272453;76;20955;-83
2021/09/15 07:25:41;;;;;;;18.75;16.75;;;;;;;18.56;69.84;99088.69;2299624;76;20964;-83
2021/09/15 07:28:42;;;;;;;19.17;17.25;;;;;;;18.65;69.02;99095.19;2293441;76;20956;-82
2021/09/15 07:31:42;;;;;;;22.37;17.10;;;;;;;18.79;69.21;99098.47;2323012;76;20912;-83
2021/09/15 07:34:45;;;;;;;21.10;16.35;;;;;;;18.95;68.60;99090.69;2299151;77;20991;-82
2021/09/15 07:37:45;;;;;;;20.65;16.32;;;;;;;19.13;68.31;99096.58;2286507;77;20924;-82
2021/09/15 07:40:46;;;;;;;20.40;15.95;;;;;;;19.31;67.81;99089.61;2372844;75;20948;-83
2021/09/15 07:43:46;;;;;;;19.77;15.35;;;;;;;19.48;66.99;99087.50;2361507;75;20936;-84
2021/09/15 07:46:47;;;;;;;16.95;15.20;;;;;;;19.68;65.91;99090.64;2294661;76;21323;-83
2021/09/15 07:49:49;;;;;;;23.87;15.15;;;;;;;19.77;65.52;99091.34;2368871;75;21342;-83
2021/09/15 07:52:50;;;;;;;25.17;15.60;;;;;;;19.92;65.38;99096.31;2287696;76;21027;-83
2021/09/15 07:55:50;;;;;;;22.45;16.10;;;;;;;20.07;65.15;99104.41;2335864;75;21010;-81
2021/09/15 07:58:51;;;;;;;27.35;15.70;;;;;;;20.22;64.05;99104.94;2340671;74;21300;-82
2021/09/15 08:01:51;;;;;;;17.90;16.05;;;;;;;20.35;64.45;99106.84;2371691;75;20933;-85
2021/09/15 08:04:52;;;;;;;18.77;15.85;;;;;;;20.46;63.91;99098.67;2283352;76;21006;-85
2021/09/15 08:07:52;;;;;;;19.30;15.35;;;;;;;20.63;64.03;99099.13;2315701;75;20982;-84
2021/09/15 08:10:55;;;;;;;18.42;14.60;;;;;;;20.78;62.77;99095.23;2310083;77;20940;-85
2021/09/15 08:13:56;;;;;;;46.40;17.73;;;;;;;20.86;62.84;99096.80;2280069;76;20923;-83
2021/09/15 08:16:56;;;;;;;16.25;14.28;;;;;;;21.03;62.53;99098.15;2314079;77;20943;-81
2021/09/15 08:22:59;;;;;;;23.83;16.90;;;;;;;21.28;61.16;99096.61;2296088;76;20977;-85
2021/09/15 08:26:00;;;;;;;15.70;14.07;;;;;;;21.19;60.66;99104.79;2298359;76;21000;-86
2021/09/15 08:29:00;;;;;;;15.48;13.85;;;;;;;21.23;60.12;99107.36;2288253;76;20971;-84
2021/09/15 08:32:01;;;;;;;49.18;15.65;;;;;;;21.31;60.54;99103.16;2294904;77;21018;-85
2021/09/15 08:35:02;;;;;;;14.03;12.33;;;;;;;21.52;60.27;99110.53;2284242;77;21076;-83
2021/09/15 08:38:03;;;;;;;18.70;14.00;;;;;;;21.75;58.91;99110.36;2360149;75;20966;-84
2021/09/15 08:41:04;;;;;;;25.57;14.33;;;;;;;21.80;59.19;99108.44;2364694;75;20935;-83
2021/09/15 08:44:05;;;;;;;13.00;11.70;;;;;;;21.89;58.84;99108.17;2363735;75;20938;-83
2021/09/15 08:47:05;;;;;;;12.65;11.55;;;;;;;22.07;58.28;99110.31;2274505;77;21109;-85
2021/09/15 08:50:06;;;;;;;22.77;12.78;;;;;;;22.13;57.10;99111.45;2317433;75;20946;-84
2021/09/15 08:53:10;;;;;;;19.27;11.60;;;;;;;22.18;57.58;99108.19;2308040;77;20932;-84
2021/09/15 08:56:11;;;;;;;15.60;11.53;;;;;;;22.41;57.60;99108.80;2312927;77;21025;-83
2021/09/15 08:59:12;;;;;;;13.03;11.20;;;;;;;22.62;56.05;99104.61;2311730;76;20960;-82
2021/09/15 09:02:12;;;;;;;15.25;9.75;;;;;;;22.74;55.01;99105.53;2287597;77;21364;-81
2021/09/15 09:05:13;;;;;;;10.68;9.30;;;;;;;22.82;52.69;99092.88;2273300;77;21335;-79
2021/09/15 09:08:13;;;;;;;14.07;9.53;;;;;;;22.87;54.08;99106.89;2374171;75;20952;-81
2021/09/15 09:11:14;;;;;;;11.85;9.38;;;;;;;23.01;52.95;99097.56;2377492;75;20944;-81
2021/09/15 09:14:14;;;;;;;10.78;9.48;;;;;;;23.08;52.52;99096.44;2272508;76;20934;-80
2021/09/15 09:17:15;;;;;;;9.90;8.90;;;;;;;23.12;51.42;99096.73;2309726;76;20961;-79
2021/09/15 09:20:15;;;;;;;11.08;9.95;;;;;;;23.10;51.74;99098.12;2315822;76;20987;-80
2021/09/15 09:23:16;;;;;;;10.53;8.93;;;;;;;23.14;51.34;99099.75;2311767;76;21011;-80
2021/09/15 09:26:16;;;;;;;10.10;9.05;;;;;;;23.26;51.17;99092.25;2313132;76;20975;-80
2021/09/15 09:29:17;;;;;;;15.08;9.55;;;;;;;23.35;50.66;99096.78;2308536;76;20967;-81
2021/09/15 09:32:18;;;;;;;18.85;9.35;;;;;;;23.49;51.05;99085.66;2305010;77;20972;-79
2021/09/15 09:35:18;;;;;;;10.98;8.73;;;;;;;23.64;51.19;99078.93;2298100;77;20995;-81
2021/09/15 09:38:19;;;;;;;10.53;9.05;;;;;;;23.74;49.74;99071.86;2311087;76;21291;-82
2021/09/15 09:41:20;;;;;;;9.73;8.73;;;;;;;23.79;50.31;99071.23;2308160;76;21304;-81
2021/09/15 09:44:20;;;;;;;9.33;8.43;;;;;;;23.82;50.49;99072.44;2283430;76;20955;-81
2021/09/15 09:47:21;;;;;;;9.75;8.80;;;;;;;23.88;49.59;99066.47;2368731;75;20946;-81
2021/09/15 09:50:22;;;;;;;10.80;9.73;;;;;;;23.88;49.42;99060.67;2375693;75;20994;-81
2021/09/15 09:53:23;;;;;;;9.85;8.43;;;;;;;23.92;49.47;99058.30;2374612;74;20950;-81
2021/09/15 09:56:23;;;;;;;11.73;9.38;;;;;;;23.93;49.47;99056.50;2372237;74;20951;-81
2021/09/15 09:59:27;;;;;;;35.03;11.20;;;;;;;23.96;49.12;99056.37;2360860;75;20938;-81
2021/09/15 10:02:27;;;;;;;;;;;;;;;23.98;49.10;99057.19;2371061;75;20919;-81
2021/09/15 10:05:28;;;;;;;15.32;9.83;;;;;;;23.96;47.86;99045.25;2367264;75;20124;-82
2021/09/15 10:08:29;;;;;;;36.73;10.78;;;;;;;23.82;48.08;99040.92;2367459;75;20943;-78
2021/09/15 10:11:29;;;;;;;12.43;8.23;;;;;;;23.91;48.67;99035.23;2356454;75;21595;-81
2021/09/15 10:14:31;;;;;;;9.25;8.33;;;;;;;23.86;48.06;99038.54;2339317;75;21081;-79
2021/09/15 10:17:31;;;;;;;10.58;7.83;;;;;;;24.01;48.08;99032.61;2360015;75;21349;-80
2021/09/15 10:20:32;;;;;;;16.40;9.98;;;;;;;24.01;48.08;99032.61;2280403;76;20982;-79
2021/09/15 10:23:32;;;;;;;11.30;8.60;;;;;;;24.08;47.06;99028.77;2313296;76;20975;-79
2021/09/15 10:26:33;;;;;;;17.30;9.25;;;;;;;24.17;46.51;99023.98;2312345;76;21363;-80
2021/09/15 10:29:33;;;;;;;13.00;10.00;;;;;;;24.23;47.46;99018.41;2312005;76;21328;-83
2021/09/15 10:32:34;;;;;;;36.08;11.75;;;;;;;24.37;46.93;99016.97;2314255;76;20963;-78
2021/09/15 10:35:34;;;;;;;20.40;9.70;;;;;;;24.41;46.44;99020.38;2313315;76;20943;-82
2021/09/15 10:38:35;;;;;;;14.65;8.68;;;;;;;24.52;46.54;99020.80;2285622;77;20959;-80
2021/09/15 10:41:36;;;;;;;9.50;7.58;;;;;;;24.69;46.44;99024.09;2312378;77;20975;-83
2021/09/15 10:44:36;;;;;;;13.30;7.83;;;;;;;24.58;44.91;99016.55;2281838;77;21406;-86
2021/09/15 10:47:37;;;;;;;10.68;8.53;;;;;;;24.48;45.99;99021.86;2300123;76;21379;-84
2021/09/15 10:50:40;;;;;;;13.90;9.38;;;;;;;24.49;43.62;99019.59;2283925;77;21033;-83
2021/09/15 10:53:39;;;;;;;8.95;7.65;;;;;;;24.38;44.53;99021.84;2328975;74;21007;-81
2021/09/15 10:56:40;;;;;;;20.27;9.18;;;;;;;24.34;45.88;99023.77;2361877;75;21037;-82
2021/09/15 10:59:40;;;;;;;13.53;8.85;;;;;;;24.54;46.62;99024.27;2354530;75;21340;-83
2021/09/15 11:02:41;;;;;;;17.25;9.20;;;;;;;24.78;45.35;99025.91;2358482;75;20927;-81
2021/09/15 11:05:42;;;;;;;24.72;10.60;;;;;;;24.86;43.47;99026.91;2359906;75;20941;-79
2021/09/15 11:08:43;;;;;;;19.90;10.10;;;;;;;24.84;43.02;99019.91;2322324;75;20982;-80
2021/09/15 11:11:43;;;;;;;14.47;9.80;;;;;;;24.90;43.38;99019.17;2313178;75;20978;-84
2021/09/15 11:14:44;;;;;;;24.80;9.63;;;;;;;24.97;43.76;99021.10;2314409;75;21340;-82
2021/09/15 11:17:44;;;;;;;11.50;8.78;;;;;;;25.00;44.26;99015.66;2313737;77;20949;-83
2021/09/15 11:20:44;;;;;;;26.30;9.25;;;;;;;25.14;43.92;99008.38;2311621;77;20983;-82
2021/09/15 11:23:45;;;;;;;21.10;9.90;;;;;;;25.18;43.46;99010.87;2311496;77;20943;-83
2021/09/15 11:26:46;;;;;;;14.93;9.20;;;;;;;25.25;43.74;99005.65;2315690;75;21039;-82
2021/09/15 11:29:51;;;;;;;10.95;9.08;;;;;;;25.20;43.18;99000.11;2296447;76;20952;-82
2021/09/15 11:32:48;;;;;;;25.48;9.18;;;;;;;25.20;43.26;98996.98;2345531;74;20999;-83
2021/09/15 11:35:49;;;;;;;22.85;9.70;;;;;;;25.16;41.30;98995.37;2364193;75;20942;-83
2021/09/15 11:38:50;;;;;;;25.90;10.25;;;;;;;24.88;41.69;98995.67;2357197;75;20929;-83
2021/09/15 11:41:50;;;;;;;33.08;10.63;;;;;;;25.01;44.23;99002.70;2276471;76;21327;-85
2021/09/15 11:44:51;;;;;;;19.82;8.73;;;;;;;25.19;43.64;98993.91;2334284;75;20928;-82
2021/09/15 11:47:51;;;;;;;25.62;9.40;;;;;;;25.36;43.74;98991.80;2336425;75;20994;-82
2021/09/15 11:50:52;;;;;;;18.37;9.30;;;;;;;25.48;43.40;98986.36;2323672;74;20987;-82
2021/09/15 11:53:56;;;;;;;33.65;10.95;;;;;;;25.50;43.17;98980.48;2315196;76;20927;-80
2021/09/15 11:57:05;;;;;;;22.62;10.55;;;;;;;25.56;43.34;98982.39;2308334;76;20974;-82
2021/09/15 11:59:57;;;;;;;23.87;10.40;;;;;;;25.60;43.01;98992.47;2309414;76;21000;-82
2021/09/15 12:02:57;;;;;;;16.70;9.55;;;;;;;25.55;42.87;98989.14;2311672;76;20937;-82
2021/09/15 12:05:58;;;;;;;24.32;9.53;;;;;;;25.62;42.92;98983.91;2309616;76;21679;-79
2021/09/15 12:08:59;;;;;;;12.43;7.55;;;;;;;25.78;42.63;98967.57;2317602;77;21301;-82
2021/09/15 12:11:59;;;;;;;30.17;9.78;;;;;;;25.96;42.44;98958.66;2314632;76;20936;-81
2021/09/15 12:15:01;;;;;;;22.15;9.20;;;;;;;25.88;42.29;98960.84;2310346;76;20919;-82
2021/09/15 12:18:01;;;;;;;13.25;8.53;;;;;;;26.00;42.78;98954.02;2314314;77;21402;-82
2021/09/15 12:21:02;;;;;;;11.25;7.97;;;;;;;26.06;42.53;98952.42;2315182;76;20994;-81
2021/09/15 12:24:02;;;;;;;12.43;8.08;;;;;;;26.17;42.66;98958.57;2312981;77;20959;-83
2021/09/15 12:27:03;;;;;;;9.53;8.10;;;;;;;26.14;42.16;98949.36;2310964;76;20959;-83
2021/09/15 12:30:03;;;;;;;12.68;8.75;;;;;;;26.14;42.46;98951.56;2316195;76;20999;-82
2021/09/15 12:33:04;;;;;;;9.65;7.50;;;;;;;26.19;42.13;98941.97;2308676;76;20936;-83
2021/09/15 12:36:04;;;;;;;8.23;7.35;;;;;;;26.12;42.40;98941.41;2315224;76;21331;-83
2021/09/15 12:39:05;;;;;;;10.10;8.08;;;;;;;26.15;41.08;98931.03;2309113;76;20920;-83
2021/09/15 12:42:05;;;;;;;19.60;8.65;;;;;;;26.18;41.83;98929.54;2308378;77;21006;-83
2021/09/15 12:45:06;;;;;;;24.18;8.73;;;;;;;26.17;41.34;98920.65;2311723;77;20948;-82
2021/09/15 12:48:06;;;;;;;14.53;7.40;;;;;;;26.17;40.88;98915.30;2274387;76;20985;-84
2021/09/15 12:51:07;;;;;;;13.53;7.62;;;;;;;26.31;41.30;98903.42;2295112;76;20949;-84
2021/09/15 12:54:07;;;;;;;16.87;7.78;;;;;;;26.44;40.67;98902.35;2289855;76;21317;-78
2021/09/15 12:57:08;;;;;;;14.30;8.25;;;;;;;26.37;40.95;98902.75;2298954;76;21018;-83
2021/09/15 13:00:08;;;;;;;18.75;9.15;;;;;;;26.43;41.45;98903.30;2289638;77;20966;-82
2021/09/15 13:03:09;;;;;;;10.60;8.30;;;;;;;26.42;40.80;98902.04;2287010;77;20983;-78
2021/09/15 13:06:09;;;;;;;144.45;18.32;;;;;;;26.34;40.94;98901.09;2364423;75;20989;-81
2021/09/15 13:09:10;;;;;;;16.77;7.67;;;;;;;26.37;40.86;98906.77;2366668;75;20971;-83
2021/09/15 13:12:11;;;;;;;14.25;8.23;;;;;;;26.42;40.94;98894.88;2372844;74;21468;-82
2021/09/15 13:15:11;;;;;;;14.98;7.80;;;;;;;26.39;40.13;98900.38;2364749;75;20982;-83
2021/09/15 13:18:12;;;;;;;9.03;7.72;;;;;;;26.30;40.57;98911.05;2366806;75;20944;-83
2021/09/15 13:21:12;;;;;;;11.38;7.15;;;;;;;26.33;41.10;98907.39;2286980;77;20998;-84
2021/09/15 13:24:13;;;;;;;16.17;8.30;;;;;;;26.42;41.30;98901.56;2311587;76;20975;-83
2021/09/15 13:27:13;;;;;;;8.40;7.60;;;;;;;26.50;40.98;98899.36;2313220;76;21336;-82
2021/09/15 13:30:14;;;;;;;18.65;7.83;;;;;;;26.41;41.30;98893.61;2312959;76;21372;-82
2021/09/15 13:33:14;;;;;;;18.85;8.33;;;;;;;26.40;42.32;98884.72;2309707;77;20948;-83
2021/09/15 13:36:15;;;;;;;8.33;7.40;;;;;;;26.38;42.23;98877.72;2313001;76;20991;-83
2021/09/15 13:39:15;;;;;;;9.15;8.23;;;;;;;26.31;41.96;98876.66;2314160;77;20955;-83
2021/09/15 13:42:16;;;;;;;7.47;6.78;;;;;;;26.30;42.62;98883.43;2313039;76;20978;-82
2021/09/15 13:45:17;;;;;;;7.70;7.00;;;;;;;26.33;42.47;98873.94;2319556;76;20959;-83
2021/09/15 13:48:17;;;;;;;7.55;6.95;;;;;;;26.32;43.10;98865.48;2308166;76;20967;-83
2021/09/15 13:51:18;;;;;;;11.15;7.78;;;;;;;26.32;43.20;98858.36;2307214;76;20947;-83
2021/09/15 13:54:18;;;;;;;8.38;7.67;;;;;;;26.29;43.10;98857.62;2311854;76;20951;-83
2021/09/15 13:57:19;;;;;;;8.55;7.58;;;;;;;26.24;43.32;98855.66;2315821;76;21366;-81
2021/09/15 14:00:20;;;;;;;30.88;8.60;;;;;;;26.25;43.86;98856.91;2273804;77;21106;-82
2021/09/15 14:03:20;;;;;;;26.73;8.00;;;;;;;26.29;43.91;98847.78;2298477;77;20978;-83
2021/09/15 14:06:20;;;;;;;14.73;8.58;;;;;;;26.42;43.38;98844.50;2296404;77;20955;-83
2021/09/15 14:09:21;;;;;;;10.45;7.58;;;;;;;26.44;43.19;98842.13;2300113;76;20983;-82
2021/09/15 14:12:21;;;;;;;10.95;7.83;;;;;;;26.32;42.96;98838.73;2287248;77;21348;-83